Portada
METAR-TAF:

METAR-TAF

Aeroports :

Mataram, Indonèsia

latitud: 08-45-29S, longitud: 116-16-35E, altitud: 97 m

Observació

L'informe es va fer fa 33 minuts, a les 17:00 UTC
Vent 4 kt del Sud
Temperatura 24°C
Humitat 83%
Pressió 1015 hPa
Visibilitat: 7000 m
Núvols disperses a una alçada de 1600 ft

METAR: WADL 211700Z 17004KT 7000 SCT016 24/21 Q1015 NOSIG

Hora: 00:33 (17:33 UTC)

Pronòstic

L'informe es va fer fa 6 hores i 33 minuts, a les 11:00 UTC
Pronòstic vàlid del 21 a les 12 UTC al 22 a les 12 UTC
Vent 7 kt del Est/Sud-Est
Visibilitat: 7000 m
Núvols disperses a una alçada de 1600 ft

TAF: WADL 211100Z 2112/2212 12007KT 7000 SCT016

Observacions i pronòstics meteorològics de més de 4000 aeroports (METAR i TAF).

Les estacions disponibles són els punts grocs i vermells al mapa.

Posi el ratolí al punt desitjat per veure el nom de l'estació.

Feu clic per veure les observacions i els pronòstics meteorològics.

Per canviar el mapa: feu clic els botons verds amb una creu de color negre per apropar; al botó verd amb un guió per allunyar la imatge; o en les fletxes verdes per a mapes adjacents.


METAR-TAF: